Maarn, Netherlands
Current Conditions -  °F | °C
As of 3:25 PM on Friday 28 Nov 2014 (Local Time) from EHDL Reporting Station
Haze Haze  
Wind Chill: 39°   Ceiling: Unl
Heat Index: 45°   Visibility: 5mi
Dew Point: 39°   Wind: 10mph
Humidity: 81%   Direction: 80°E
Pressure: 29.8"   Gusts: NA
Location:  52.06°N, 5.37°E
Report Text: EHDL 281425Z AUTO 08009KT 8000 BR FEW093/// 07/04 Q1009 BLU RMK TS INFO NOT AVBL
Loading
Personal Weather Stations






























Interactive Weather Map New forecast layout! Learn more

10-Day Weather Forecast

Advertisements
Track Severe Weather on mobile